createdAt,value
2022-10-19T00:00:06.008Z,13.15
2022-10-19T00:01:19.622Z,14.10
2022-10-19T00:02:21.477Z,14.73
2022-10-19T00:03:23.421Z,18.95
2022-10-19T00:04:25.457Z,11.77
2022-10-19T00:05:28.772Z,12.63
2022-10-19T00:06:33.370Z,10.88
2022-10-19T00:07:35.758Z,12.70
2022-10-19T00:08:38.007Z,16.15
2022-10-19T00:09:40.303Z,12.93
2022-10-19T00:10:42.015Z,14.65
2022-10-19T00:11:46.786Z,20.25
2022-10-19T00:12:49.339Z,13.23
2022-10-19T00:13:52.742Z,13.25
2022-10-19T00:14:54.833Z,13.35
2022-10-19T00:15:56.584Z,10.98
2022-10-19T00:16:58.526Z,12.15
2022-10-19T00:18:00.485Z,11.98
2022-10-19T00:19:06.406Z,11.30
2022-10-19T00:20:08.828Z,8.70
2022-10-19T00:21:13.446Z,17.02
2022-10-19T00:22:15.482Z,15.45
2022-10-19T00:23:17.891Z,18.40
2022-10-19T00:24:20.161Z,20.13
2022-10-19T00:25:22.487Z,13.05
2022-10-19T00:26:25.189Z,13.45
2022-10-19T00:27:27.585Z,12.13
2022-10-19T00:28:30.450Z,13.75
2022-10-19T00:29:32.256Z,10.32
2022-10-19T00:30:38.605Z,11.73
2022-10-19T00:31:41.193Z,12.02
2022-10-19T00:32:42.999Z,15.60
2022-10-19T00:33:47.111Z,18.30
2022-10-19T00:34:49.147Z,18.75
2022-10-19T00:35:52.847Z,15.43
2022-10-19T00:36:54.805Z,11.50
2022-10-19T00:37:56.678Z,9.18
2022-10-19T00:39:00.136Z,19.83
2022-10-19T00:40:02.302Z,17.55
2022-10-19T00:41:04.662Z,15.55
2022-10-19T00:42:06.506Z,15.20
2022-10-19T00:43:30.142Z,11.50
2022-10-19T00:44:31.793Z,16.52
2022-10-19T00:45:33.453Z,21.77
2022-10-19T00:46:37.862Z,12.23
2022-10-19T00:47:41.949Z,14.60
2022-10-19T00:48:43.784Z,13.63
2022-10-19T00:49:46.635Z,12.25
2022-10-19T00:50:50.050Z,11.18
2022-10-19T00:51:55.040Z,15.05
2022-10-19T00:52:56.983Z,9.50
2022-10-19T00:53:58.981Z,12.40
2022-10-19T00:55:02.452Z,13.50
2022-10-19T00:56:10.244Z,14.90
2022-10-19T00:57:13.058Z,17.73
2022-10-19T00:58:16.172Z,10.45
2022-10-19T00:59:21.288Z,12.40
2022-10-19T01:00:23.493Z,9.85
2022-10-19T01:01:26.977Z,11.13
2022-10-19T01:02:29.365Z,10.25
2022-10-19T01:03:32.079Z,10.45
2022-10-19T01:04:36.818Z,14.88
2022-10-19T01:05:39.427Z,18.77
2022-10-19T01:06:41.847Z,18.13
2022-10-19T01:07:44.177Z,16.15
2022-10-19T01:08:46.385Z,17.35
2022-10-19T01:09:48.466Z,11.38
2022-10-19T01:11:14.550Z,15.18
2022-10-19T01:12:33.262Z,17.52
2022-10-19T01:13:53.489Z,14.25
2022-10-19T01:15:11.730Z,12.48
2022-10-19T01:16:58.370Z,10.88
2022-10-19T01:18:16.522Z,11.15
2022-10-19T01:19:36.973Z,22.50
2022-10-19T01:21:06.598Z,31.65
2022-10-19T01:22:31.873Z,15.07
2022-10-19T01:23:39.326Z,16.17
2022-10-19T01:24:44.656Z,15.50
2022-10-19T01:26:01.326Z,17.92
2022-10-19T01:27:44.957Z,18.15
2022-10-19T01:28:55.959Z,14.93
2022-10-19T01:30:47.463Z,16.88
2022-10-19T01:32:08.059Z,11.43
2022-10-19T01:33:16.131Z,14.77
2022-10-19T01:34:26.807Z,16.38
2022-10-19T01:35:39.961Z,19.65
2022-10-19T01:37:01.160Z,16.35
2022-10-19T01:38:25.325Z,17.80
2022-10-19T01:39:49.994Z,15.65
2022-10-19T01:41:00.867Z,15.50
2022-10-19T01:42:12.181Z,16.98
2022-10-19T01:43:22.209Z,16.48
2022-10-19T01:44:35.948Z,13.57
2022-10-19T01:46:00.800Z,18.95
2022-10-19T01:47:12.456Z,21.27
2022-10-19T01:48:19.605Z,19.52
2022-10-19T01:49:48.537Z,22.10
2022-10-19T01:51:05.219Z,17.42
2022-10-19T01:52:10.819Z,16.10
2022-10-19T01:53:14.490Z,21.10
2022-10-19T01:54:18.838Z,16.00
2022-10-19T01:55:22.782Z,17.17
2022-10-19T01:56:28.556Z,15.57
2022-10-19T01:57:40.258Z,15.63
2022-10-19T01:58:43.893Z,22.75
2022-10-19T01:59:47.295Z,17.50
2022-10-19T02:00:52.738Z,15.85
2022-10-19T02:01:55.842Z,16.52
2022-10-19T02:03:00.544Z,21.63
2022-10-19T02:04:03.891Z,15.02
2022-10-19T02:05:08.322Z,15.27
2022-10-19T02:06:13.578Z,17.60
2022-10-19T02:07:17.160Z,16.33
2022-10-19T02:08:38.772Z,14.85
2022-10-19T02:09:41.058Z,22.33
2022-10-19T02:10:45.299Z,21.80
2022-10-19T02:11:54.710Z,17.90
2022-10-19T02:12:59.916Z,17.27
2022-10-19T02:14:08.042Z,15.65
2022-10-19T02:15:13.657Z,10.23
2022-10-19T02:16:21.908Z,14.43
2022-10-19T02:17:31.707Z,15.98
2022-10-19T02:18:41.675Z,19.77
2022-10-19T02:19:44.110Z,12.88
2022-10-19T02:20:46.870Z,16.75
2022-10-19T02:21:50.596Z,21.48
2022-10-19T02:22:55.200Z,18.52
2022-10-19T02:23:57.083Z,14.20
2022-10-19T02:24:59.135Z,13.07
2022-10-19T02:26:01.181Z,14.85
2022-10-19T02:27:06.081Z,17.55
2022-10-19T02:28:08.509Z,11.38
2022-10-19T02:29:14.141Z,17.45
2022-10-19T02:30:18.185Z,17.83
2022-10-19T02:31:20.659Z,17.45
2022-10-19T02:32:23.302Z,18.42
2022-10-19T02:33:25.929Z,19.58
2022-10-19T02:34:28.124Z,17.58
2022-10-19T02:35:30.236Z,18.65
2022-10-19T02:36:33.313Z,16.55
2022-10-19T02:38:38.227Z,27.08
2022-10-19T02:39:40.949Z,27.63
2022-10-19T02:40:48.024Z,25.95
2022-10-19T02:42:16.034Z,24.08
2022-10-19T02:43:21.526Z,15.90
2022-10-19T02:44:41.363Z,20.77
2022-10-19T02:45:54.074Z,20.33
2022-10-19T02:47:03.403Z,24.85
2022-10-19T02:48:16.577Z,21.63
2022-10-19T02:49:19.211Z,20.95
2022-10-19T02:50:22.883Z,23.05
2022-10-19T02:51:32.591Z,21.13
2022-10-19T02:52:36.745Z,20.75
2022-10-19T02:53:39.139Z,20.52
2022-10-19T02:54:43.738Z,16.17
2022-10-19T02:55:47.971Z,19.40
2022-10-19T02:56:50.555Z,20.23
2022-10-19T02:57:52.397Z,19.90
2022-10-19T02:58:55.868Z,24.33
2022-10-19T02:59:58.139Z,21.77
2022-10-19T03:01:00.408Z,25.67
2022-10-19T03:02:02.715Z,18.08
2022-10-19T03:03:04.471Z,18.58
2022-10-19T03:04:06.182Z,26.88
2022-10-19T03:05:09.403Z,23.80
2022-10-19T03:06:11.427Z,22.60
2022-10-19T03:07:17.453Z,28.70
2022-10-19T03:08:19.121Z,25.58
2022-10-19T03:09:21.092Z,23.38
2022-10-19T03:10:23.514Z,22.02
2022-10-19T03:11:25.690Z,34.08
2022-10-19T03:12:28.453Z,36.28
2022-10-19T03:13:30.254Z,32.80
2022-10-19T03:14:32.035Z,36.83
2022-10-19T03:15:40.260Z,37.05
2022-10-19T03:16:42.139Z,44.30
2022-10-19T03:17:44.306Z,37.25
2022-10-19T03:18:51.592Z,43.97
2022-10-19T03:19:54.109Z,46.90
2022-10-19T03:21:07.289Z,43.40
2022-10-19T03:22:09.702Z,42.40
2022-10-19T03:23:11.544Z,35.10
2022-10-19T03:24:13.399Z,45.67
2022-10-19T03:25:15.771Z,32.63
2022-10-19T03:26:18.136Z,36.35
2022-10-19T03:27:21.482Z,34.17
2022-10-19T03:28:23.724Z,38.38
2022-10-19T03:29:25.408Z,36.83
2022-10-19T03:30:27.504Z,30.15
2022-10-19T03:31:29.314Z,28.67
2022-10-19T03:32:31.007Z,41.47
2022-10-19T03:33:33.086Z,27.83
2022-10-19T03:34:34.924Z,33.33
2022-10-19T03:35:36.760Z,32.30
2022-10-19T03:36:40.719Z,38.80
2022-10-19T03:37:43.085Z,29.13
2022-10-19T03:38:44.984Z,26.92
2022-10-19T03:39:46.689Z,26.48
2022-10-19T03:40:48.442Z,28.88
2022-10-19T03:41:50.111Z,33.42
2022-10-19T03:42:52.956Z,34.75
2022-10-19T03:43:54.885Z,38.63
2022-10-19T03:44:56.772Z,27.65
2022-10-19T03:45:58.444Z,25.48
2022-10-19T03:47:00.279Z,24.33
2022-10-19T03:48:02.628Z,25.20
2022-10-19T03:49:05.596Z,26.52
2022-10-19T03:50:13.435Z,24.23
2022-10-19T03:51:18.141Z,23.63
2022-10-19T03:52:20.571Z,30.33
2022-10-19T03:53:22.519Z,39.72
2022-10-19T03:54:27.289Z,36.10
2022-10-19T03:55:30.393Z,47.80
2022-10-19T03:56:33.470Z,26.20
2022-10-19T03:57:35.786Z,26.67
2022-10-19T03:58:39.690Z,27.90
2022-10-19T03:59:41.478Z,26.08
2022-10-19T04:00:43.245Z,26.48
2022-10-19T04:01:46.525Z,34.95
2022-10-19T04:02:48.725Z,33.55
2022-10-19T04:03:58.608Z,45.92
2022-10-19T04:05:00.853Z,25.63
2022-10-19T04:06:04.847Z,22.35
2022-10-19T04:07:07.110Z,23.65
2022-10-19T04:08:08.991Z,30.88
2022-10-19T04:09:13.952Z,23.92
2022-10-19T04:10:16.029Z,26.08
2022-10-19T04:11:25.093Z,38.40
2022-10-19T04:12:27.525Z,22.60
2022-10-19T04:13:30.839Z,26.30
2022-10-19T04:14:39.385Z,24.77
2022-10-19T04:15:54.519Z,24.08
2022-10-19T04:16:56.442Z,28.88
2022-10-19T04:17:59.047Z,26.60
2022-10-19T04:19:01.239Z,24.73
2022-10-19T04:20:03.185Z,28.38
2022-10-19T04:21:05.941Z,34.78
2022-10-19T04:22:11.114Z,34.20
2022-10-19T04:23:13.111Z,26.17
2022-10-19T04:24:18.300Z,27.20
2022-10-19T04:25:20.182Z,30.92
2022-10-19T04:26:22.652Z,37.92
2022-10-19T04:27:24.622Z,34.53
2022-10-19T04:28:26.344Z,31.27
2022-10-19T04:29:30.205Z,24.90
2022-10-19T04:30:33.521Z,29.42
2022-10-19T04:31:35.913Z,34.40
2022-10-19T04:32:38.468Z,33.40
2022-10-19T04:33:40.938Z,23.77
2022-10-19T04:34:42.673Z,31.85
2022-10-19T04:35:44.532Z,26.45
2022-10-19T04:36:46.770Z,26.63
2022-10-19T04:37:48.487Z,23.05
2022-10-19T04:38:50.191Z,21.92
2022-10-19T04:39:51.887Z,26.77
2022-10-19T04:40:54.100Z,32.47
2022-10-19T04:41:55.965Z,24.88
2022-10-19T04:42:58.521Z,32.15
2022-10-19T04:44:02.092Z,28.67
2022-10-19T04:45:04.678Z,24.33
2022-10-19T04:46:09.859Z,26.65
2022-10-19T04:47:11.697Z,28.35
2022-10-19T04:48:15.122Z,24.58
2022-10-19T04:49:20.194Z,25.88
2022-10-19T04:50:23.646Z,34.22
2022-10-19T04:51:26.698Z,28.67
2022-10-19T04:52:28.976Z,31.65
2022-10-19T04:53:31.733Z,29.00
2022-10-19T04:54:33.530Z,21.95
2022-10-19T04:55:40.827Z,24.65
2022-10-19T04:56:42.743Z,33.67
2022-10-19T04:57:44.483Z,30.02
2022-10-19T04:58:46.609Z,26.10
2022-10-19T04:59:48.836Z,29.45
2022-10-19T05:00:51.415Z,27.65
2022-10-19T05:01:53.416Z,27.08
2022-10-19T05:02:55.134Z,27.38
2022-10-19T05:04:04.820Z,30.00
2022-10-19T05:05:07.885Z,26.92
2022-10-19T05:06:10.562Z,33.70
2022-10-19T05:07:12.280Z,30.65
2022-10-19T05:08:13.951Z,31.98
2022-10-19T05:09:15.666Z,33.83
2022-10-19T05:10:17.463Z,29.48
2022-10-19T05:11:21.017Z,31.05
2022-10-19T05:12:22.717Z,31.95
2022-10-19T05:13:25.068Z,31.20
2022-10-19T05:15:30.821Z,27.48
2022-10-19T05:16:32.666Z,27.80
2022-10-19T05:17:35.328Z,31.05
2022-10-19T05:18:37.337Z,27.15
2022-10-19T05:19:39.024Z,27.40
2022-10-19T05:20:40.715Z,32.97
2022-10-19T05:21:42.453Z,30.63
2022-10-19T05:22:44.209Z,30.02
2022-10-19T05:23:46.243Z,30.55
2022-10-19T05:24:50.228Z,32.42
2022-10-19T05:26:17.464Z,27.73
2022-10-19T05:27:19.457Z,30.17
2022-10-19T05:28:21.401Z,28.77
2022-10-19T05:29:24.847Z,30.33
2022-10-19T05:30:26.844Z,29.15
2022-10-19T05:31:30.291Z,34.50
2022-10-19T05:32:32.254Z,24.67
2022-10-19T05:33:34.145Z,29.50
2022-10-19T05:34:36.241Z,30.40
2022-10-19T05:35:37.886Z,32.92
2022-10-19T05:36:41.189Z,29.17
2022-10-19T05:37:42.941Z,32.72
2022-10-19T05:38:46.926Z,32.08
2022-10-19T05:39:48.673Z,28.83
2022-10-19T05:40:53.601Z,30.08
2022-10-19T05:41:55.705Z,25.63
2022-10-19T05:42:58.101Z,28.77
2022-10-19T05:44:01.640Z,26.15
2022-10-19T05:45:04.484Z,32.45
2022-10-19T05:46:09.114Z,29.08
2022-10-19T05:47:10.814Z,28.77
2022-10-19T05:48:12.478Z,26.85
2022-10-19T05:49:16.304Z,31.08
2022-10-19T05:50:18.051Z,27.52
2022-10-19T05:51:21.133Z,28.55
2022-10-19T05:52:22.844Z,29.80
2022-10-19T05:53:24.652Z,27.20
2022-10-19T05:54:28.564Z,27.63
2022-10-19T05:55:34.688Z,25.58
2022-10-19T05:56:36.875Z,24.60
2022-10-19T05:57:39.351Z,27.40
2022-10-19T05:58:41.392Z,23.10
2022-10-19T05:59:43.785Z,24.83
2022-10-19T06:00:55.044Z,23.70
2022-10-19T06:01:56.922Z,22.77
2022-10-19T06:02:59.358Z,25.70
2022-10-19T06:04:02.730Z,28.13
2022-10-19T06:05:04.711Z,25.60
2022-10-19T06:06:08.524Z,24.70
2022-10-19T06:07:10.823Z,26.42
2022-10-19T06:08:12.642Z,27.50
2022-10-19T06:09:14.433Z,27.60
2022-10-19T06:10:16.299Z,24.63
2022-10-19T06:11:24.823Z,28.23
2022-10-19T06:12:26.570Z,33.92
2022-10-19T06:13:28.242Z,32.00
2022-10-19T06:14:30.295Z,28.70
2022-10-19T06:15:37.522Z,24.30
2022-10-19T06:16:40.689Z,23.30
2022-10-19T06:17:42.442Z,30.13
2022-10-19T06:18:45.410Z,23.60
2022-10-19T06:19:47.213Z,31.40
2022-10-19T06:20:49.187Z,27.38
2022-10-19T06:21:50.870Z,26.92
2022-10-19T06:22:53.284Z,24.63
2022-10-19T06:24:00.868Z,26.95
2022-10-19T06:25:02.625Z,23.02
2022-10-19T06:26:08.041Z,21.80
2022-10-19T06:27:09.750Z,26.73
2022-10-19T06:28:11.501Z,20.02
2022-10-19T06:29:13.237Z,20.27
2022-10-19T06:30:15.025Z,21.00
2022-10-19T06:31:17.667Z,25.23
2022-10-19T06:32:19.889Z,22.15
2022-10-19T06:33:21.626Z,23.42
2022-10-19T06:34:23.720Z,21.77
2022-10-19T06:35:25.858Z,22.42
2022-10-19T06:36:30.502Z,25.95
2022-10-19T06:37:32.524Z,26.27
2022-10-19T06:38:34.968Z,23.42
2022-10-19T06:39:37.329Z,21.80
2022-10-19T06:40:39.481Z,29.27
2022-10-19T06:41:41.956Z,22.15
2022-10-19T06:42:44.124Z,24.40
2022-10-19T06:43:55.009Z,24.50
2022-10-19T06:44:56.708Z,25.33
2022-10-19T06:45:59.110Z,25.65
2022-10-19T06:47:00.879Z,22.95
2022-10-19T06:48:06.635Z,30.63
2022-10-19T06:49:14.106Z,18.42
2022-10-19T06:50:16.576Z,21.30
2022-10-19T06:51:19.716Z,18.75
2022-10-19T06:52:22.027Z,19.27
2022-10-19T06:53:24.179Z,23.75
2022-10-19T06:54:26.200Z,21.60
2022-10-19T06:55:28.588Z,17.42
2022-10-19T06:56:30.386Z,22.00
2022-10-19T06:57:32.720Z,18.20
2022-10-19T06:58:39.132Z,20.17
2022-10-19T06:59:40.983Z,20.20
2022-10-19T07:00:42.748Z,16.65
2022-10-19T07:01:44.703Z,20.27
2022-10-19T07:02:46.481Z,18.63
2022-10-19T07:03:50.278Z,17.88
2022-10-19T07:04:52.857Z,39.28
2022-10-19T07:05:56.310Z,17.05
2022-10-19T07:06:58.391Z,14.90
2022-10-19T07:08:03.479Z,17.10
2022-10-19T07:09:05.418Z,15.73
2022-10-19T07:10:07.546Z,17.42
2022-10-19T07:11:12.572Z,16.52
2022-10-19T07:12:14.564Z,15.63
2022-10-19T07:13:16.333Z,16.42
2022-10-19T07:14:18.449Z,15.23
2022-10-19T07:15:20.506Z,18.63
2022-10-19T07:16:23.417Z,15.93
2022-10-19T07:17:25.151Z,17.20
2022-10-19T07:18:27.560Z,16.25
2022-10-19T07:19:30.181Z,15.27
2022-10-19T07:20:32.232Z,17.33
2022-10-19T07:21:41.836Z,15.88
2022-10-19T07:22:43.876Z,18.35
2022-10-19T07:23:47.329Z,16.95
2022-10-19T07:24:49.305Z,15.68
2022-10-19T07:25:53.714Z,16.73
2022-10-19T07:26:56.144Z,18.50
2022-10-19T07:27:58.096Z,18.65
2022-10-19T07:29:00.661Z,21.15
2022-10-19T07:30:03.050Z,15.23
2022-10-19T07:31:10.241Z,14.43
2022-10-19T07:32:12.239Z,15.30
2022-10-19T07:33:14.282Z,17.40
2022-10-19T07:34:16.537Z,15.23
2022-10-19T07:35:18.370Z,15.70
2022-10-19T07:36:20.632Z,13.98
2022-10-19T07:37:22.832Z,15.68
2022-10-19T07:38:24.496Z,15.10
2022-10-19T07:39:27.776Z,15.63
2022-10-19T07:40:29.674Z,15.50
2022-10-19T07:41:32.206Z,15.95
2022-10-19T07:42:34.408Z,16.33
2022-10-19T07:43:36.445Z,17.23
2022-10-19T07:44:38.269Z,17.23
2022-10-19T07:45:40.439Z,16.63
2022-10-19T07:46:42.629Z,15.82
2022-10-19T07:47:44.772Z,16.52
2022-10-19T07:48:47.037Z,13.35
2022-10-19T07:49:48.901Z,17.55
2022-10-19T07:50:50.760Z,20.33
2022-10-19T07:51:55.029Z,16.38
2022-10-19T07:52:57.546Z,18.38
2022-10-19T07:53:59.776Z,15.07
2022-10-19T07:55:01.807Z,20.63
2022-10-19T07:56:09.182Z,15.40
2022-10-19T07:57:12.640Z,15.45
2022-10-19T07:58:14.532Z,37.35
2022-10-19T07:59:17.490Z,16.25
2022-10-19T08:00:19.312Z,13.73
2022-10-19T08:01:25.379Z,14.77
2022-10-19T08:02:30.951Z,12.50
2022-10-19T08:04:48.595Z,13.98
2022-10-19T08:05:07.749Z,15.10
2022-10-19T08:06:15.055Z,14.40
2022-10-19T08:07:16.954Z,14.75
2022-10-19T08:08:21.601Z,14.65
2022-10-19T08:09:51.096Z,14.35
2022-10-19T08:10:45.444Z,13.13
2022-10-19T08:11:47.323Z,16.40
2022-10-19T08:12:49.186Z,17.40
2022-10-19T08:13:52.334Z,19.10
2022-10-19T08:14:54.389Z,15.40
2022-10-19T08:15:56.299Z,17.33
2022-10-19T08:16:58.170Z,13.15
2022-10-19T08:18:01.042Z,16.60
2022-10-19T08:19:09.307Z,15.45
2022-10-19T08:20:11.561Z,14.20
2022-10-19T08:21:13.771Z,15.70
2022-10-19T08:22:16.220Z,13.52
2022-10-19T08:23:18.080Z,16.30
2022-10-19T08:24:21.344Z,14.70
2022-10-19T08:25:23.772Z,16.10
2022-10-19T08:26:28.291Z,13.55
2022-10-19T08:27:30.671Z,13.48
2022-10-19T08:28:32.526Z,12.70
2022-10-19T08:29:34.386Z,13.43
2022-10-19T08:30:36.965Z,15.55
2022-10-19T08:31:39.674Z,14.73
2022-10-19T08:32:41.802Z,13.75
2022-10-19T08:33:44.700Z,15.20
2022-10-19T08:34:47.184Z,15.52
2022-10-19T08:35:49.104Z,13.95
2022-10-19T08:36:51.150Z,15.02
2022-10-19T08:37:53.813Z,13.80
2022-10-19T08:38:56.059Z,12.55
2022-10-19T08:39:57.952Z,15.02
2022-10-19T08:41:13.748Z,17.23
2022-10-19T08:42:23.912Z,16.52
2022-10-19T08:43:36.846Z,14.57
2022-10-19T08:45:11.512Z,12.82
2022-10-19T08:46:25.036Z,12.95
2022-10-19T08:47:39.141Z,12.38
2022-10-19T08:48:43.666Z,12.25
2022-10-19T08:49:46.882Z,14.73
2022-10-19T08:50:49.713Z,13.40
2022-10-19T08:52:17.662Z,15.77
2022-10-19T08:53:44.341Z,12.05
2022-10-19T08:54:55.350Z,12.70
2022-10-19T08:56:38.931Z,15.52
2022-10-19T08:57:54.030Z,12.40
2022-10-19T08:59:26.345Z,13.05
2022-10-19T09:00:53.302Z,16.08
2022-10-19T09:01:57.013Z,14.85
2022-10-19T09:03:55.770Z,14.95
2022-10-19T09:05:04.559Z,12.60
2022-10-19T09:06:24.894Z,15.15
2022-10-19T09:07:28.953Z,13.73
2022-10-19T09:08:31.549Z,13.20
2022-10-19T09:09:38.351Z,10.90
2022-10-19T09:10:43.637Z,14.18
2022-10-19T09:11:49.298Z,14.15
2022-10-19T09:13:04.222Z,14.80
2022-10-19T09:14:16.378Z,11.05
2022-10-19T09:15:38.856Z,9.57
2022-10-19T09:16:40.931Z,11.30
2022-10-19T09:17:43.101Z,9.82
2022-10-19T09:18:47.151Z,12.68
2022-10-19T09:19:48.978Z,13.40
2022-10-19T09:21:07.913Z,12.60
2022-10-19T09:22:20.747Z,10.85
2022-10-19T09:23:40.803Z,10.55
2022-10-19T09:24:55.704Z,13.25
2022-10-19T09:25:58.945Z,11.07
2022-10-19T09:27:02.181Z,9.05
2022-10-19T09:28:36.460Z,11.90
2022-10-19T09:29:51.479Z,10.88
2022-10-19T09:30:57.659Z,11.70
2022-10-19T09:32:01.854Z,10.25
2022-10-19T09:33:04.647Z,9.80
2022-10-19T09:34:15.056Z,9.88
2022-10-19T09:35:41.267Z,7.70
2022-10-19T09:36:50.529Z,9.75
2022-10-19T09:37:54.239Z,9.15
2022-10-19T09:38:55.992Z,11.00
2022-10-19T09:39:57.864Z,9.38
2022-10-19T09:41:28.079Z,10.48
2022-10-19T09:42:33.762Z,8.40
2022-10-19T09:43:36.274Z,8.27
2022-10-19T09:44:38.930Z,8.23
2022-10-19T09:45:52.232Z,7.65
2022-10-19T09:47:25.283Z,7.65
2022-10-19T09:48:32.047Z,7.95
2022-10-19T09:49:48.198Z,7.07
2022-10-19T09:50:58.362Z,6.60
2022-10-19T09:52:00.233Z,7.00
2022-10-19T09:53:06.031Z,7.93
2022-10-19T09:54:24.518Z,7.82
2022-10-19T09:55:28.706Z,8.55
2022-10-19T09:56:37.242Z,6.30
2022-10-19T09:57:47.644Z,10.45
2022-10-19T09:58:54.678Z,11.02
2022-10-19T09:59:57.372Z,8.23
2022-10-19T10:00:59.732Z,7.60
2022-10-19T10:02:15.362Z,6.88
2022-10-19T10:03:24.499Z,7.97
2022-10-19T10:04:26.198Z,5.28
2022-10-19T10:05:56.258Z,5.70
2022-10-19T10:06:58.656Z,5.45
2022-10-19T10:08:01.697Z,4.68
2022-10-19T10:09:04.240Z,6.80
2022-10-19T10:10:20.882Z,5.63
2022-10-19T10:11:32.829Z,4.82
2022-10-19T10:12:36.497Z,5.90
2022-10-19T10:13:44.870Z,7.50
2022-10-19T10:14:48.687Z,6.28
2022-10-19T10:15:56.529Z,4.75
2022-10-19T10:17:05.270Z,5.97
2022-10-19T10:18:16.904Z,4.82
2022-10-19T10:19:20.789Z,4.80
2022-10-19T10:20:32.630Z,4.35
2022-10-19T10:21:48.441Z,4.43
2022-10-19T10:23:22.838Z,6.38
2022-10-19T10:24:27.811Z,5.38
2022-10-19T10:25:32.589Z,5.72
2022-10-19T10:26:45.663Z,7.05
2022-10-19T10:28:00.465Z,5.35
2022-10-19T10:29:02.244Z,7.10
2022-10-19T10:30:18.409Z,4.55
2022-10-19T10:31:25.147Z,4.80
2022-10-19T10:32:28.590Z,5.15
2022-10-19T10:33:44.234Z,4.90
2022-10-19T10:35:01.024Z,6.88
2022-10-19T10:36:08.764Z,5.68
2022-10-19T10:37:28.428Z,4.05
2022-10-19T10:38:43.426Z,5.22
2022-10-19T10:39:45.776Z,4.13
2022-10-19T10:40:54.558Z,4.82
2022-10-19T10:42:01.760Z,4.97
2022-10-19T10:43:14.059Z,4.35
2022-10-19T10:44:22.051Z,5.45
2022-10-19T10:45:42.653Z,5.35
2022-10-19T10:46:57.035Z,3.90
2022-10-19T10:48:20.621Z,5.05
2022-10-19T10:49:43.007Z,4.82
2022-10-19T10:50:45.570Z,4.25
2022-10-19T10:52:00.871Z,3.88
2022-10-19T10:53:06.207Z,3.13
2022-10-19T10:54:25.471Z,3.75
2022-10-19T10:55:28.437Z,4.32
2022-10-19T10:56:33.678Z,4.38
2022-10-19T10:57:43.347Z,4.25
2022-10-19T10:59:04.599Z,4.88
2022-10-19T11:00:24.621Z,8.90
2022-10-19T11:01:40.257Z,4.60
2022-10-19T11:03:01.064Z,4.32
2022-10-19T11:04:11.104Z,5.30
2022-10-19T11:05:27.214Z,4.13
2022-10-19T11:06:32.075Z,4.53
2022-10-19T11:07:35.922Z,5.00
2022-10-19T11:09:03.338Z,3.70
2022-10-19T11:10:28.465Z,3.95
2022-10-19T11:11:43.048Z,4.50
2022-10-19T11:13:15.962Z,4.05
2022-10-19T11:14:46.171Z,3.83
2022-10-19T11:16:17.027Z,7.82
2022-10-19T11:17:22.810Z,4.40
2022-10-19T11:18:34.361Z,4.38
2022-10-19T11:19:45.652Z,4.03
2022-10-19T11:21:03.706Z,6.45
2022-10-19T11:22:15.626Z,6.22
2022-10-19T11:23:40.630Z,5.93
2022-10-19T11:24:58.963Z,4.05
2022-10-19T11:26:17.339Z,6.85
2022-10-19T11:27:49.133Z,3.92
2022-10-19T11:29:02.602Z,4.53
2022-10-19T11:30:14.014Z,4.82
2022-10-19T11:31:51.185Z,5.18
2022-10-19T11:32:58.799Z,5.57
2022-10-19T11:34:11.427Z,5.00
2022-10-19T11:35:36.508Z,3.92
2022-10-19T11:37:05.264Z,5.40
2022-10-19T11:38:29.754Z,5.47
2022-10-19T11:40:04.651Z,3.97
2022-10-19T11:41:29.168Z,4.70
2022-10-19T11:42:53.389Z,4.15
2022-10-19T11:44:10.073Z,3.83
2022-10-19T11:45:20.734Z,4.25
2022-10-19T11:46:39.192Z,6.95
2022-10-19T11:48:06.011Z,4.65
2022-10-19T11:49:19.666Z,4.22
2022-10-19T11:50:54.503Z,5.70
2022-10-19T11:52:06.665Z,6.10
2022-10-19T11:53:18.527Z,5.13
2022-10-19T11:54:44.055Z,5.32
2022-10-19T11:55:45.767Z,5.82
2022-10-19T11:57:03.249Z,6.63
2022-10-19T11:58:15.271Z,7.30
2022-10-19T11:59:19.769Z,4.15
2022-10-19T12:00:39.518Z,8.73
2022-10-19T12:02:27.008Z,5.18
2022-10-19T12:03:56.041Z,6.45
2022-10-19T12:05:02.879Z,5.82
2022-10-19T12:06:17.988Z,6.03
2022-10-19T12:07:38.522Z,4.80
2022-10-19T12:09:12.672Z,4.40
2022-10-19T12:10:40.647Z,5.28
2022-10-19T12:11:51.378Z,4.80
2022-10-19T12:12:59.210Z,4.20
2022-10-19T12:14:05.095Z,7.28
2022-10-19T12:15:13.486Z,7.72
2022-10-19T12:16:17.194Z,4.68
2022-10-19T12:17:29.364Z,5.13
2022-10-19T12:18:50.732Z,4.82
2022-10-19T12:19:58.743Z,6.55
2022-10-19T12:21:07.746Z,4.75
2022-10-19T12:22:17.082Z,4.53
2022-10-19T12:23:35.333Z,5.88
2022-10-19T12:24:37.061Z,6.05
2022-10-19T12:25:43.403Z,6.40
2022-10-19T12:26:46.001Z,5.22
2022-10-19T12:27:50.919Z,4.70
2022-10-19T12:29:21.071Z,7.10
2022-10-19T12:30:24.246Z,7.03
2022-10-19T12:31:27.892Z,4.95
2022-10-19T12:32:34.340Z,6.72
2022-10-19T12:33:48.201Z,5.00
2022-10-19T12:34:55.095Z,6.22
2022-10-19T12:36:35.538Z,4.32
2022-10-19T12:38:11.537Z,5.22
2022-10-19T12:39:53.890Z,4.95
2022-10-19T12:41:07.637Z,5.00
2022-10-19T12:42:12.126Z,5.63
2022-10-19T12:43:19.638Z,7.32
2022-10-19T12:44:34.756Z,5.32
2022-10-19T12:45:39.685Z,7.18
2022-10-19T12:46:51.730Z,5.38
2022-10-19T12:48:11.417Z,8.05
2022-10-19T12:49:31.190Z,5.95
2022-10-19T12:50:53.738Z,5.78
2022-10-19T12:52:01.066Z,7.50
2022-10-19T12:53:03.078Z,5.15
2022-10-19T12:54:09.873Z,4.82
2022-10-19T12:55:17.794Z,6.78
2022-10-19T12:56:23.548Z,6.10
2022-10-19T12:57:30.214Z,4.97
2022-10-19T12:58:38.062Z,4.65
2022-10-19T12:59:39.895Z,4.70
2022-10-19T13:00:42.370Z,5.28
2022-10-19T13:01:44.673Z,5.53
2022-10-19T13:02:55.297Z,4.20
2022-10-19T13:04:11.386Z,6.82
2022-10-19T13:05:33.108Z,5.43
2022-10-19T13:06:39.889Z,5.10
2022-10-19T13:07:41.891Z,6.43
2022-10-19T13:08:53.028Z,5.55
2022-10-19T13:10:05.542Z,4.90
2022-10-19T13:11:14.640Z,5.55
2022-10-19T13:12:21.386Z,5.53
2022-10-19T13:14:12.325Z,8.32
2022-10-19T13:15:36.533Z,6.25
2022-10-19T13:16:38.216Z,10.98
2022-10-19T13:17:45.698Z,7.32
2022-10-19T13:19:00.110Z,7.38
2022-10-19T13:20:14.073Z,5.38
2022-10-19T13:21:54.642Z,6.72
2022-10-19T13:22:59.392Z,6.47
2022-10-19T13:24:19.963Z,5.55
2022-10-19T13:25:30.298Z,5.00
2022-10-19T13:26:34.003Z,4.25
2022-10-19T13:27:38.734Z,3.78
2022-10-19T13:28:53.208Z,5.82
2022-10-19T13:29:55.299Z,3.50
2022-10-19T13:31:08.265Z,3.50
2022-10-19T13:32:32.631Z,5.05
2022-10-19T13:33:41.877Z,3.88
2022-10-19T13:34:43.553Z,4.95
2022-10-19T13:35:46.666Z,3.85
2022-10-19T13:37:03.541Z,3.55
2022-10-19T13:38:18.458Z,6.07
2022-10-19T13:39:28.240Z,5.32
2022-10-19T13:40:31.510Z,6.68
2022-10-19T13:41:39.550Z,3.42
2022-10-19T13:42:41.321Z,4.60
2022-10-19T13:44:03.324Z,4.32
2022-10-19T13:45:05.540Z,6.18
2022-10-19T13:46:39.321Z,4.65
2022-10-19T13:47:47.534Z,4.40
2022-10-19T13:49:01.504Z,4.78
2022-10-19T13:50:16.981Z,4.53
2022-10-19T13:51:33.446Z,3.45
2022-10-19T13:52:56.952Z,5.47
2022-10-19T13:54:19.501Z,2.83
2022-10-19T13:55:57.509Z,3.58
2022-10-19T13:57:12.440Z,3.85
2022-10-19T13:58:33.723Z,5.10
2022-10-19T13:59:47.179Z,4.03
2022-10-19T14:01:10.531Z,3.33
2022-10-19T14:02:50.668Z,3.00
2022-10-19T14:03:58.394Z,5.88
2022-10-19T14:05:12.026Z,2.75
2022-10-19T14:06:24.720Z,2.90
2022-10-19T14:07:43.084Z,3.40
2022-10-19T14:09:00.356Z,5.22
2022-10-19T14:10:14.157Z,6.03
2022-10-19T14:11:20.546Z,3.13
2022-10-19T14:12:27.954Z,3.05
2022-10-19T14:13:30.108Z,5.07
2022-10-19T14:15:53.115Z,3.88
2022-10-19T14:17:01.256Z,3.47
2022-10-19T14:18:48.407Z,5.25
2022-10-19T14:19:59.143Z,3.83
2022-10-19T14:21:04.626Z,3.03
2022-10-19T14:22:29.809Z,2.88
2022-10-19T14:23:40.164Z,7.40
2022-10-19T14:24:42.656Z,2.97
2022-10-19T14:26:11.233Z,6.72
2022-10-19T14:27:23.324Z,2.65
2022-10-19T14:28:26.144Z,6.70
2022-10-19T14:29:28.980Z,7.00
2022-10-19T14:30:34.199Z,3.65
2022-10-19T14:31:37.264Z,3.10
2022-10-19T14:33:51.211Z,3.08
2022-10-19T14:34:54.811Z,4.05
2022-10-19T14:35:56.738Z,3.70
2022-10-19T14:36:58.465Z,4.20
2022-10-19T14:38:00.507Z,3.33
2022-10-19T14:39:03.414Z,4.00
2022-10-19T14:40:10.768Z,3.97
2022-10-19T14:41:27.634Z,3.88
2022-10-19T14:42:44.552Z,3.88
2022-10-19T14:43:46.466Z,13.82
2022-10-19T14:44:48.213Z,2.65
2022-10-19T14:46:08.759Z,3.42
2022-10-19T14:47:27.062Z,3.20
2022-10-19T14:48:28.785Z,5.10
2022-10-19T14:49:30.568Z,8.02